Terminal Aerodrome Forecast
Issued by NWS Buffalo, NY

Current Version | Previous Version | Text Only | Print | Product List | Glossary On
Versions: 1 2 3 4 5 6 7 8 9 10 11 12 13 14 15 16 17 18 19 20 21 22 23 24 25 26 27 28
000
FTUS41 KBUF 231100
TAFROC
TAF
KROC 231122Z 2312/2412 35010KT P6SM BKN070
     FM231500 35013G19KT P6SM BKN050
     FM231800 35013G19KT P6SM BKN035
     FM232200 34009KT P6SM BKN035
     FM240300 32007KT P6SM BKN050
     FM241000 28007KT P6SM BKN120=

USA.gov is the U.S. government's official web portal to all federal, state and local government web resources and services.